sensor_id;sensor_type;location;lat;lon;timestamp;P1;durP1;ratioP1;P2;durP2;ratioP2
739;SDS011;354;42.694;23.336;2022-11-23T00:01:15;22.57;;;20.27;;
739;SDS011;354;42.694;23.336;2022-11-23T00:03:41;22.10;;;19.80;;
739;SDS011;354;42.694;23.336;2022-11-23T00:06:06;23.10;;;19.33;;
739;SDS011;354;42.694;23.336;2022-11-23T00:08:31;25.33;;;21.47;;
739;SDS011;354;42.694;23.336;2022-11-23T00:10:57;22.30;;;20.07;;
739;SDS011;354;42.694;23.336;2022-11-23T00:13:22;21.17;;;19.13;;
739;SDS011;354;42.694;23.336;2022-11-23T00:15:48;23.03;;;20.67;;
739;SDS011;354;42.694;23.336;2022-11-23T00:18:13;20.10;;;18.10;;
739;SDS011;354;42.694;23.336;2022-11-23T00:20:39;18.40;;;16.43;;
739;SDS011;354;42.694;23.336;2022-11-23T00:23:04;20.77;;;18.67;;
739;SDS011;354;42.694;23.336;2022-11-23T00:25:29;18.53;;;16.53;;
739;SDS011;354;42.694;23.336;2022-11-23T00:27:54;22.47;;;18.47;;
739;SDS011;354;42.694;23.336;2022-11-23T00:30:20;22.60;;;20.17;;
739;SDS011;354;42.694;23.336;2022-11-23T00:32:45;22.70;;;19.77;;
739;SDS011;354;42.694;23.336;2022-11-23T00:35:10;23.90;;;21.47;;
739;SDS011;354;42.694;23.336;2022-11-23T00:37:35;24.37;;;21.77;;
739;SDS011;354;42.694;23.336;2022-11-23T00:40:00;24.33;;;21.73;;
739;SDS011;354;42.694;23.336;2022-11-23T00:42:26;25.93;;;20.90;;
739;SDS011;354;42.694;23.336;2022-11-23T00:44:51;24.97;;;20.93;;
739;SDS011;354;42.694;23.336;2022-11-23T00:47:16;25.23;;;21.37;;
739;SDS011;354;42.694;23.336;2022-11-23T00:49:41;27.67;;;22.20;;
739;SDS011;354;42.694;23.336;2022-11-23T00:52:07;26.53;;;22.30;;
739;SDS011;354;42.694;23.336;2022-11-23T00:54:32;27.93;;;23.00;;
739;SDS011;354;42.694;23.336;2022-11-23T00:56:57;25.40;;;21.57;;
739;SDS011;354;42.694;23.336;2022-11-23T00:59:22;26.87;;;23.70;;
739;SDS011;354;42.694;23.336;2022-11-23T01:01:48;27.23;;;23.03;;
739;SDS011;354;42.694;23.336;2022-11-23T01:04:13;27.17;;;23.80;;
739;SDS011;354;42.694;23.336;2022-11-23T01:06:39;27.30;;;23.60;;
739;SDS011;354;42.694;23.336;2022-11-23T01:09:05;24.90;;;22.50;;
739;SDS011;354;42.694;23.336;2022-11-23T01:11:31;25.90;;;23.10;;
739;SDS011;354;42.694;23.336;2022-11-23T01:13:57;27.67;;;22.80;;
739;SDS011;354;42.694;23.336;2022-11-23T01:16:24;24.90;;;22.20;;
739;SDS011;354;42.694;23.336;2022-11-23T01:18:56;26.13;;;22.97;;
739;SDS011;354;42.694;23.336;2022-11-23T01:21:22;27.00;;;21.87;;
739;SDS011;354;42.694;23.336;2022-11-23T01:23:48;26.63;;;23.83;;
739;SDS011;354;42.694;23.336;2022-11-23T01:26:13;27.53;;;23.37;;
739;SDS011;354;42.694;23.336;2022-11-23T01:28:39;26.57;;;21.33;;
739;SDS011;354;42.694;23.336;2022-11-23T01:31:08;27.33;;;22.40;;
739;SDS011;354;42.694;23.336;2022-11-23T01:33:34;26.93;;;24.07;;
739;SDS011;354;42.694;23.336;2022-11-23T01:35:59;24.70;;;22.17;;
739;SDS011;354;42.694;23.336;2022-11-23T01:38:24;24.13;;;21.60;;
739;SDS011;354;42.694;23.336;2022-11-23T01:40:49;26.00;;;22.13;;
739;SDS011;354;42.694;23.336;2022-11-23T01:43:16;25.50;;;22.90;;
739;SDS011;354;42.694;23.336;2022-11-23T01:46:02;22.90;;;20.03;;
739;SDS011;354;42.694;23.336;2022-11-23T01:48:28;25.43;;;22.27;;
739;SDS011;354;42.694;23.336;2022-11-23T01:50:55;28.03;;;25.33;;
739;SDS011;354;42.694;23.336;2022-11-23T01:53:20;25.33;;;22.73;;
739;SDS011;354;42.694;23.336;2022-11-23T01:55:46;26.93;;;24.33;;
739;SDS011;354;42.694;23.336;2022-11-23T01:58:13;28.47;;;24.20;;
739;SDS011;354;42.694;23.336;2022-11-23T02:00:39;26.77;;;23.97;;
739;SDS011;354;42.694;23.336;2022-11-23T02:03:05;26.77;;;23.93;;
739;SDS011;354;42.694;23.336;2022-11-23T02:05:32;27.47;;;24.80;;
739;SDS011;354;42.694;23.336;2022-11-23T02:07:59;26.70;;;24.07;;
739;SDS011;354;42.694;23.336;2022-11-23T02:10:25;27.00;;;23.80;;
739;SDS011;354;42.694;23.336;2022-11-23T02:12:51;28.10;;;22.70;;
739;SDS011;354;42.694;23.336;2022-11-23T02:15:16;25.53;;;23.17;;
739;SDS011;354;42.694;23.336;2022-11-23T02:17:42;25.80;;;22.43;;
739;SDS011;354;42.694;23.336;2022-11-23T02:20:08;28.60;;;25.77;;
739;SDS011;354;42.694;23.336;2022-11-23T02:24:59;26.50;;;23.83;;
739;SDS011;354;42.694;23.336;2022-11-23T02:27:26;28.43;;;25.63;;
739;SDS011;354;42.694;23.336;2022-11-23T02:29:51;28.40;;;25.53;;
739;SDS011;354;42.694;23.336;2022-11-23T02:32:18;29.40;;;26.43;;
739;SDS011;354;42.694;23.336;2022-11-23T02:34:47;28.57;;;25.67;;
739;SDS011;354;42.694;23.336;2022-11-23T02:37:12;29.23;;;26.37;;
739;SDS011;354;42.694;23.336;2022-11-23T02:39:42;28.53;;;25.90;;
739;SDS011;354;42.694;23.336;2022-11-23T02:42:08;29.23;;;26.07;;
739;SDS011;354;42.694;23.336;2022-11-23T02:47:02;27.83;;;24.93;;
739;SDS011;354;42.694;23.336;2022-11-23T02:49:27;30.30;;;27.30;;
739;SDS011;354;42.694;23.336;2022-11-23T02:51:53;28.13;;;25.40;;
739;SDS011;354;42.694;23.336;2022-11-23T02:54:18;28.27;;;25.03;;
739;SDS011;354;42.694;23.336;2022-11-23T02:56:43;29.87;;;27.03;;
739;SDS011;354;42.694;23.336;2022-11-23T02:59:08;28.63;;;25.67;;
739;SDS011;354;42.694;23.336;2022-11-23T03:01:34;30.13;;;27.17;;
739;SDS011;354;42.694;23.336;2022-11-23T03:03:59;30.47;;;27.23;;
739;SDS011;354;42.694;23.336;2022-11-23T03:06:24;29.87;;;26.87;;
739;SDS011;354;42.694;23.336;2022-11-23T03:08:49;29.83;;;26.93;;
739;SDS011;354;42.694;23.336;2022-11-23T03:11:15;28.00;;;25.07;;
739;SDS011;354;42.694;23.336;2022-11-23T03:13:40;28.47;;;25.57;;
739;SDS011;354;42.694;23.336;2022-11-23T03:16:06;29.97;;;26.87;;
739;SDS011;354;42.694;23.336;2022-11-23T03:18:31;26.40;;;23.03;;
739;SDS011;354;42.694;23.336;2022-11-23T03:21:03;30.63;;;26.63;;
739;SDS011;354;42.694;23.336;2022-11-23T03:23:29;27.90;;;25.10;;
739;SDS011;354;42.694;23.336;2022-11-23T03:25:57;28.10;;;25.13;;
739;SDS011;354;42.694;23.336;2022-11-23T03:28:22;30.50;;;27.40;;
739;SDS011;354;42.694;23.336;2022-11-23T03:30:48;30.07;;;26.87;;
739;SDS011;354;42.694;23.336;2022-11-23T03:33:13;27.57;;;24.77;;
739;SDS011;354;42.694;23.336;2022-11-23T03:35:38;28.33;;;25.53;;
739;SDS011;354;42.694;23.336;2022-11-23T03:38:04;26.63;;;23.93;;
739;SDS011;354;42.694;23.336;2022-11-23T03:40:29;25.47;;;22.80;;
739;SDS011;354;42.694;23.336;2022-11-23T03:42:54;25.27;;;22.83;;
739;SDS011;354;42.694;23.336;2022-11-23T03:45:19;24.83;;;21.37;;
739;SDS011;354;42.694;23.336;2022-11-23T03:47:45;24.43;;;22.07;;
739;SDS011;354;42.694;23.336;2022-11-23T03:50:10;23.00;;;20.60;;
739;SDS011;354;42.694;23.336;2022-11-23T03:52:35;20.93;;;18.90;;
739;SDS011;354;42.694;23.336;2022-11-23T03:55:01;24.33;;;21.93;;
739;SDS011;354;42.694;23.336;2022-11-23T03:57:26;23.67;;;21.40;;
739;SDS011;354;42.694;23.336;2022-11-23T03:59:51;22.67;;;20.73;;
739;SDS011;354;42.694;23.336;2022-11-23T04:02:16;24.20;;;21.87;;
739;SDS011;354;42.694;23.336;2022-11-23T04:04:42;22.00;;;19.90;;
739;SDS011;354;42.694;23.336;2022-11-23T04:07:07;29.17;;;21.57;;
739;SDS011;354;42.694;23.336;2022-11-23T04:09:32;25.60;;;23.20;;
739;SDS011;354;42.694;23.336;2022-11-23T04:11:57;24.70;;;22.37;;
739;SDS011;354;42.694;23.336;2022-11-23T04:14:22;25.63;;;23.03;;
739;SDS011;354;42.694;23.336;2022-11-23T04:16:48;24.63;;;21.97;;
739;SDS011;354;42.694;23.336;2022-11-23T04:19:13;26.13;;;23.63;;
739;SDS011;354;42.694;23.336;2022-11-23T04:21:38;26.67;;;24.17;;
739;SDS011;354;42.694;23.336;2022-11-23T04:24:03;24.03;;;21.63;;
739;SDS011;354;42.694;23.336;2022-11-23T04:26:29;26.47;;;23.77;;
739;SDS011;354;42.694;23.336;2022-11-23T04:28:54;26.27;;;23.70;;
739;SDS011;354;42.694;23.336;2022-11-23T04:31:19;27.10;;;24.50;;
739;SDS011;354;42.694;23.336;2022-11-23T04:33:44;25.97;;;23.30;;
739;SDS011;354;42.694;23.336;2022-11-23T04:36:10;25.90;;;23.30;;
739;SDS011;354;42.694;23.336;2022-11-23T04:38:35;27.87;;;25.07;;
739;SDS011;354;42.694;23.336;2022-11-23T04:41:00;28.63;;;25.83;;
739;SDS011;354;42.694;23.336;2022-11-23T04:43:25;27.07;;;24.47;;
739;SDS011;354;42.694;23.336;2022-11-23T04:45:51;26.60;;;23.90;;
739;SDS011;354;42.694;23.336;2022-11-23T04:48:16;26.67;;;24.40;;
739;SDS011;354;42.694;23.336;2022-11-23T04:50:41;27.80;;;25.20;;
739;SDS011;354;42.694;23.336;2022-11-23T04:53:07;28.70;;;25.90;;
739;SDS011;354;42.694;23.336;2022-11-23T04:55:32;26.87;;;24.03;;
739;SDS011;354;42.694;23.336;2022-11-23T04:57:57;27.47;;;24.77;;
739;SDS011;354;42.694;23.336;2022-11-23T05:00:23;23.93;;;21.60;;
739;SDS011;354;42.694;23.336;2022-11-23T05:02:48;29.83;;;26.83;;
739;SDS011;354;42.694;23.336;2022-11-23T05:05:13;27.60;;;22.97;;
739;SDS011;354;42.694;23.336;2022-11-23T05:07:39;25.93;;;23.13;;
739;SDS011;354;42.694;23.336;2022-11-23T05:10:04;25.33;;;22.93;;
739;SDS011;354;42.694;23.336;2022-11-23T05:12:29;25.90;;;23.27;;
739;SDS011;354;42.694;23.336;2022-11-23T05:14:54;27.67;;;24.67;;
739;SDS011;354;42.694;23.336;2022-11-23T05:17:20;30.37;;;25.37;;
739;SDS011;354;42.694;23.336;2022-11-23T05:19:45;30.57;;;26.30;;
739;SDS011;354;42.694;23.336;2022-11-23T05:22:10;38.03;;;32.60;;
739;SDS011;354;42.694;23.336;2022-11-23T05:24:35;39.67;;;32.23;;
739;SDS011;354;42.694;23.336;2022-11-23T05:27:00;35.80;;;30.47;;
739;SDS011;354;42.694;23.336;2022-11-23T05:29:26;38.40;;;32.00;;
739;SDS011;354;42.694;23.336;2022-11-23T05:31:51;38.23;;;30.80;;
739;SDS011;354;42.694;23.336;2022-11-23T05:34:16;37.83;;;33.57;;
739;SDS011;354;42.694;23.336;2022-11-23T05:36:41;41.03;;;32.60;;
739;SDS011;354;42.694;23.336;2022-11-23T05:39:07;34.93;;;31.17;;
739;SDS011;354;42.694;23.336;2022-11-23T05:41:32;36.53;;;30.97;;
739;SDS011;354;42.694;23.336;2022-11-23T05:43:57;36.60;;;29.50;;
739;SDS011;354;42.694;23.336;2022-11-23T05:46:22;35.40;;;29.60;;
739;SDS011;354;42.694;23.336;2022-11-23T05:48:47;34.10;;;29.90;;
739;SDS011;354;42.694;23.336;2022-11-23T05:51:13;35.50;;;30.97;;
739;SDS011;354;42.694;23.336;2022-11-23T05:53:38;35.03;;;30.90;;
739;SDS011;354;42.694;23.336;2022-11-23T05:56:03;36.50;;;31.77;;
739;SDS011;354;42.694;23.336;2022-11-23T05:58:28;33.53;;;29.93;;
739;SDS011;354;42.694;23.336;2022-11-23T06:00:57;38.67;;;34.60;;
739;SDS011;354;42.694;23.336;2022-11-23T06:03:23;35.07;;;30.93;;
739;SDS011;354;42.694;23.336;2022-11-23T06:05:48;35.23;;;28.73;;
739;SDS011;354;42.694;23.336;2022-11-23T06:08:13;33.37;;;29.43;;
739;SDS011;354;42.694;23.336;2022-11-23T06:10:38;36.40;;;30.47;;
739;SDS011;354;42.694;23.336;2022-11-23T06:13:03;33.47;;;29.80;;
739;SDS011;354;42.694;23.336;2022-11-23T06:15:29;33.50;;;30.10;;
739;SDS011;354;42.694;23.336;2022-11-23T06:17:57;35.10;;;31.43;;
739;SDS011;354;42.694;23.336;2022-11-23T06:20:22;42.07;;;37.00;;
739;SDS011;354;42.694;23.336;2022-11-23T06:22:51;34.93;;;30.60;;
739;SDS011;354;42.694;23.336;2022-11-23T06:25:17;38.83;;;32.63;;
739;SDS011;354;42.694;23.336;2022-11-23T06:27:42;36.90;;;31.20;;
739;SDS011;354;42.694;23.336;2022-11-23T06:30:15;38.17;;;32.53;;
739;SDS011;354;42.694;23.336;2022-11-23T06:32:40;38.73;;;32.20;;
739;SDS011;354;42.694;23.336;2022-11-23T06:35:05;36.53;;;32.63;;
739;SDS011;354;42.694;23.336;2022-11-23T06:37:31;35.97;;;32.00;;
739;SDS011;354;42.694;23.336;2022-11-23T06:39:56;35.00;;;30.47;;
739;SDS011;354;42.694;23.336;2022-11-23T06:42:21;34.00;;;30.53;;
739;SDS011;354;42.694;23.336;2022-11-23T06:44:46;32.93;;;29.43;;
739;SDS011;354;42.694;23.336;2022-11-23T06:47:12;34.10;;;30.60;;
739;SDS011;354;42.694;23.336;2022-11-23T06:49:37;34.03;;;29.33;;
739;SDS011;354;42.694;23.336;2022-11-23T06:52:02;33.27;;;29.67;;
739;SDS011;354;42.694;23.336;2022-11-23T06:54:28;33.97;;;30.27;;
739;SDS011;354;42.694;23.336;2022-11-23T06:56:54;32.87;;;29.13;;
739;SDS011;354;42.694;23.336;2022-11-23T06:59:19;37.40;;;30.63;;
739;SDS011;354;42.694;23.336;2022-11-23T07:01:44;38.77;;;34.57;;
739;SDS011;354;42.694;23.336;2022-11-23T07:04:10;36.90;;;32.90;;
739;SDS011;354;42.694;23.336;2022-11-23T07:06:37;36.67;;;32.77;;
739;SDS011;354;42.694;23.336;2022-11-23T07:09:03;32.30;;;28.90;;
739;SDS011;354;42.694;23.336;2022-11-23T07:11:28;30.90;;;26.80;;
739;SDS011;354;42.694;23.336;2022-11-23T07:13:53;32.47;;;27.03;;
739;SDS011;354;42.694;23.336;2022-11-23T07:16:19;47.40;;;38.40;;
739;SDS011;354;42.694;23.336;2022-11-23T07:18:44;29.77;;;26.60;;
739;SDS011;354;42.694;23.336;2022-11-23T07:21:09;31.83;;;27.60;;
739;SDS011;354;42.694;23.336;2022-11-23T07:23:35;30.53;;;27.47;;
739;SDS011;354;42.694;23.336;2022-11-23T07:26:04;26.43;;;23.80;;
739;SDS011;354;42.694;23.336;2022-11-23T07:28:29;25.47;;;22.97;;
739;SDS011;354;42.694;23.336;2022-11-23T07:30:55;28.00;;;25.00;;
739;SDS011;354;42.694;23.336;2022-11-23T07:33:20;30.07;;;27.03;;
739;SDS011;354;42.694;23.336;2022-11-23T07:35:45;26.53;;;23.77;;
739;SDS011;354;42.694;23.336;2022-11-23T07:38:12;24.73;;;22.27;;
739;SDS011;354;42.694;23.336;2022-11-23T07:40:37;26.67;;;24.03;;
739;SDS011;354;42.694;23.336;2022-11-23T07:43:03;28.93;;;25.83;;
739;SDS011;354;42.694;23.336;2022-11-23T07:45:29;26.67;;;23.80;;
739;SDS011;354;42.694;23.336;2022-11-23T07:47:58;26.57;;;22.37;;
739;SDS011;354;42.694;23.336;2022-11-23T07:50:23;28.77;;;25.77;;
739;SDS011;354;42.694;23.336;2022-11-23T07:52:48;29.90;;;26.70;;
739;SDS011;354;42.694;23.336;2022-11-23T07:55:13;28.87;;;25.87;;
739;SDS011;354;42.694;23.336;2022-11-23T07:57:39;28.40;;;25.33;;
739;SDS011;354;42.694;23.336;2022-11-23T08:00:04;31.93;;;28.57;;
739;SDS011;354;42.694;23.336;2022-11-23T08:02:30;27.53;;;24.60;;
739;SDS011;354;42.694;23.336;2022-11-23T08:04:55;29.27;;;26.20;;
739;SDS011;354;42.694;23.336;2022-11-23T08:07:20;27.67;;;25.03;;
739;SDS011;354;42.694;23.336;2022-11-23T08:09:45;25.67;;;22.97;;
739;SDS011;354;42.694;23.336;2022-11-23T08:12:10;25.87;;;23.27;;
739;SDS011;354;42.694;23.336;2022-11-23T08:14:36;27.97;;;25.27;;
739;SDS011;354;42.694;23.336;2022-11-23T08:17:01;27.23;;;24.53;;
739;SDS011;354;42.694;23.336;2022-11-23T08:19:26;26.03;;;23.40;;
739;SDS011;354;42.694;23.336;2022-11-23T08:21:51;27.90;;;25.07;;
739;SDS011;354;42.694;23.336;2022-11-23T08:24:17;27.37;;;21.37;;
739;SDS011;354;42.694;23.336;2022-11-23T08:26:42;24.77;;;22.33;;
739;SDS011;354;42.694;23.336;2022-11-23T08:29:07;27.03;;;24.40;;
739;SDS011;354;42.694;23.336;2022-11-23T08:31:32;27.90;;;24.90;;
739;SDS011;354;42.694;23.336;2022-11-23T08:33:58;28.30;;;25.50;;
739;SDS011;354;42.694;23.336;2022-11-23T08:36:23;30.63;;;27.37;;
739;SDS011;354;42.694;23.336;2022-11-23T08:38:48;33.77;;;27.57;;
739;SDS011;354;42.694;23.336;2022-11-23T08:41:15;28.70;;;25.80;;
739;SDS011;354;42.694;23.336;2022-11-23T08:43:42;28.93;;;25.33;;
739;SDS011;354;42.694;23.336;2022-11-23T08:46:07;26.90;;;23.77;;
739;SDS011;354;42.694;23.336;2022-11-23T08:48:33;33.07;;;29.50;;
739;SDS011;354;42.694;23.336;2022-11-23T08:50:58;25.73;;;22.80;;
739;SDS011;354;42.694;23.336;2022-11-23T08:53:24;28.00;;;25.30;;
739;SDS011;354;42.694;23.336;2022-11-23T08:55:49;26.20;;;23.40;;
739;SDS011;354;42.694;23.336;2022-11-23T08:58:15;26.43;;;23.60;;
739;SDS011;354;42.694;23.336;2022-11-23T09:00:40;25.67;;;23.10;;
739;SDS011;354;42.694;23.336;2022-11-23T09:03:05;26.40;;;23.80;;
739;SDS011;354;42.694;23.336;2022-11-23T09:05:30;28.80;;;25.43;;
739;SDS011;354;42.694;23.336;2022-11-23T09:07:59;23.67;;;21.13;;
739;SDS011;354;42.694;23.336;2022-11-23T09:10:24;21.83;;;19.63;;
739;SDS011;354;42.694;23.336;2022-11-23T09:12:50;23.33;;;21.03;;
739;SDS011;354;42.694;23.336;2022-11-23T09:15:15;26.60;;;23.77;;
739;SDS011;354;42.694;23.336;2022-11-23T09:17:40;22.70;;;20.37;;
739;SDS011;354;42.694;23.336;2022-11-23T09:20:06;22.33;;;20.07;;
739;SDS011;354;42.694;23.336;2022-11-23T09:22:31;20.57;;;18.37;;
739;SDS011;354;42.694;23.336;2022-11-23T09:24:57;20.83;;;18.93;;
739;SDS011;354;42.694;23.336;2022-11-23T09:27:22;19.63;;;17.70;;
739;SDS011;354;42.694;23.336;2022-11-23T09:29:48;18.07;;;16.47;;
739;SDS011;354;42.694;23.336;2022-11-23T09:32:14;18.37;;;16.80;;
739;SDS011;354;42.694;23.336;2022-11-23T09:34:39;19.53;;;17.60;;
739;SDS011;354;42.694;23.336;2022-11-23T09:37:04;20.47;;;18.57;;
739;SDS011;354;42.694;23.336;2022-11-23T09:39:30;20.63;;;18.47;;
739;SDS011;354;42.694;23.336;2022-11-23T09:49:56;18.30;;;16.50;;
739;SDS011;354;42.694;23.336;2022-11-23T09:52:25;19.07;;;17.37;;
739;SDS011;354;42.694;23.336;2022-11-23T09:54:54;18.17;;;16.57;;
739;SDS011;354;42.694;23.336;2022-11-23T09:57:22;18.97;;;17.07;;
739;SDS011;354;42.694;23.336;2022-11-23T10:00:15;19.80;;;18.00;;
739;SDS011;354;42.694;23.336;2022-11-23T10:02:38;19.87;;;17.90;;
739;SDS011;354;42.694;23.336;2022-11-23T10:05:04;17.93;;;16.03;;
739;SDS011;354;42.694;23.336;2022-11-23T10:15:02;15.47;;;14.10;;
739;SDS011;354;42.694;23.336;2022-11-23T10:22:58;16.00;;;14.40;;
739;SDS011;354;42.694;23.336;2022-11-23T10:25:17;13.63;;;12.33;;
739;SDS011;354;42.694;23.336;2022-11-23T10:27:43;13.53;;;12.27;;
739;SDS011;354;42.694;23.336;2022-11-23T10:30:13;12.80;;;11.70;;
739;SDS011;354;42.694;23.336;2022-11-23T10:32:46;14.50;;;13.20;;
739;SDS011;354;42.694;23.336;2022-11-23T10:37:39;14.63;;;13.20;;
739;SDS011;354;42.694;23.336;2022-11-23T10:42:37;12.90;;;11.70;;
739;SDS011;354;42.694;23.336;2022-11-23T10:45:04;10.90;;;10.00;;
739;SDS011;354;42.694;23.336;2022-11-23T10:47:37;12.93;;;11.60;;
739;SDS011;354;42.694;23.336;2022-11-23T10:50:18;11.87;;;10.87;;
739;SDS011;354;42.694;23.336;2022-11-23T10:52:48;11.60;;;10.60;;
739;SDS011;354;42.694;23.336;2022-11-23T10:55:22;11.07;;;10.17;;
739;SDS011;354;42.694;23.336;2022-11-23T10:57:48;12.27;;;11.20;;
739;SDS011;354;42.694;23.336;2022-11-23T11:00:14;16.10;;;14.40;;
739;SDS011;354;42.694;23.336;2022-11-23T11:02:56;13.73;;;12.37;;
739;SDS011;354;42.694;23.336;2022-11-23T11:05:26;15.03;;;13.63;;
739;SDS011;354;42.694;23.336;2022-11-23T11:07:53;12.43;;;11.20;;
739;SDS011;354;42.694;23.336;2022-11-23T11:10:32;17.30;;;15.13;;
739;SDS011;354;42.694;23.336;2022-11-23T11:12:57;12.77;;;11.50;;
739;SDS011;354;42.694;23.336;2022-11-23T11:15:22;13.07;;;11.63;;
739;SDS011;354;42.694;23.336;2022-11-23T11:17:55;16.33;;;12.20;;
739;SDS011;354;42.694;23.336;2022-11-23T11:20:30;11.90;;;10.80;;
739;SDS011;354;42.694;23.336;2022-11-23T11:22:56;12.80;;;11.27;;
739;SDS011;354;42.694;23.336;2022-11-23T11:25:26;12.13;;;10.93;;
739;SDS011;354;42.694;23.336;2022-11-23T11:27:52;11.77;;;10.70;;
739;SDS011;354;42.694;23.336;2022-11-23T11:30:21;12.57;;;11.37;;
739;SDS011;354;42.694;23.336;2022-11-23T11:38:03;8.13;;;7.43;;
739;SDS011;354;42.694;23.336;2022-11-23T11:40:33;9.70;;;8.97;;
739;SDS011;354;42.694;23.336;2022-11-23T11:43:04;7.90;;;7.30;;
739;SDS011;354;42.694;23.336;2022-11-23T11:45:32;10.23;;;9.30;;
739;SDS011;354;42.694;23.336;2022-11-23T11:50:26;13.60;;;12.23;;
739;SDS011;354;42.694;23.336;2022-11-23T11:52:54;9.70;;;8.93;;
739;SDS011;354;42.694;23.336;2022-11-23T11:55:22;7.73;;;7.23;;
739;SDS011;354;42.694;23.336;2022-11-23T11:57:54;9.37;;;8.67;;
739;SDS011;354;42.694;23.336;2022-11-23T12:00:20;12.07;;;10.97;;
739;SDS011;354;42.694;23.336;2022-11-23T12:02:51;14.73;;;13.20;;
739;SDS011;354;42.694;23.336;2022-11-23T12:05:53;9.87;;;9.00;;
739;SDS011;354;42.694;23.336;2022-11-23T12:08:12;9.33;;;8.43;;
739;SDS011;354;42.694;23.336;2022-11-23T12:10:40;9.03;;;8.30;;
739;SDS011;354;42.694;23.336;2022-11-23T12:13:10;8.73;;;7.93;;
739;SDS011;354;42.694;23.336;2022-11-23T12:15:38;8.53;;;7.93;;
739;SDS011;354;42.694;23.336;2022-11-23T12:21:19;15.93;;;14.30;;
739;SDS011;354;42.694;23.336;2022-11-23T12:23:36;6.87;;;6.37;;
739;SDS011;354;42.694;23.336;2022-11-23T12:26:16;7.83;;;7.17;;
739;SDS011;354;42.694;23.336;2022-11-23T12:43:27;6.80;;;6.20;;
739;SDS011;354;42.694;23.336;2022-11-23T12:45:59;7.80;;;7.40;;
739;SDS011;354;42.694;23.336;2022-11-23T12:51:15;6.07;;;5.57;;
739;SDS011;354;42.694;23.336;2022-11-23T12:58:45;7.43;;;6.83;;
739;SDS011;354;42.694;23.336;2022-11-23T13:01:15;7.00;;;6.37;;
739;SDS011;354;42.694;23.336;2022-11-23T13:06:35;9.23;;;8.53;;
739;SDS011;354;42.694;23.336;2022-11-23T13:09:20;6.70;;;6.10;;
739;SDS011;354;42.694;23.336;2022-11-23T13:11:55;5.97;;;5.57;;
739;SDS011;354;42.694;23.336;2022-11-23T13:22:09;7.30;;;6.30;;
739;SDS011;354;42.694;23.336;2022-11-23T13:24:36;5.27;;;4.97;;
739;SDS011;354;42.694;23.336;2022-11-23T13:34:57;6.33;;;6.03;;
739;SDS011;354;42.694;23.336;2022-11-23T13:37:22;6.73;;;6.10;;
739;SDS011;354;42.694;23.336;2022-11-23T13:42:25;6.20;;;5.80;;
739;SDS011;354;42.694;23.336;2022-11-23T13:47:35;6.63;;;6.17;;
739;SDS011;354;42.694;23.336;2022-11-23T13:50:07;6.90;;;6.40;;
739;SDS011;354;42.694;23.336;2022-11-23T13:52:34;11.93;;;10.77;;
739;SDS011;354;42.694;23.336;2022-11-23T13:57:38;6.43;;;5.83;;
739;SDS011;354;42.694;23.336;2022-11-23T14:02:47;7.93;;;7.33;;
739;SDS011;354;42.694;23.336;2022-11-23T14:07:57;10.47;;;9.40;;
739;SDS011;354;42.694;23.336;2022-11-23T14:10:24;9.30;;;8.33;;
739;SDS011;354;42.694;23.336;2022-11-23T14:12:54;9.17;;;8.23;;
739;SDS011;354;42.694;23.336;2022-11-23T14:15:21;7.73;;;7.13;;
739;SDS011;354;42.694;23.336;2022-11-23T14:23:12;7.70;;;6.90;;
739;SDS011;354;42.694;23.336;2022-11-23T14:33:24;8.50;;;6.90;;
739;SDS011;354;42.694;23.336;2022-11-23T14:35:55;9.20;;;8.30;;
739;SDS011;354;42.694;23.336;2022-11-23T14:41:06;6.83;;;6.33;;
739;SDS011;354;42.694;23.336;2022-11-23T14:43:32;6.10;;;5.60;;
739;SDS011;354;42.694;23.336;2022-11-23T14:46:02;6.53;;;6.13;;
739;SDS011;354;42.694;23.336;2022-11-23T14:48:28;8.03;;;7.43;;
739;SDS011;354;42.694;23.336;2022-11-23T14:50:58;8.77;;;7.77;;
739;SDS011;354;42.694;23.336;2022-11-23T14:53:26;8.87;;;7.93;;
739;SDS011;354;42.694;23.336;2022-11-23T14:55:52;9.47;;;8.67;;
739;SDS011;354;42.694;23.336;2022-11-23T14:58:17;8.23;;;7.40;;
739;SDS011;354;42.694;23.336;2022-11-23T15:00:43;12.20;;;7.60;;
739;SDS011;354;42.694;23.336;2022-11-23T15:03:11;30.07;;;20.63;;
739;SDS011;354;42.694;23.336;2022-11-23T15:05:39;10.70;;;9.73;;
739;SDS011;354;42.694;23.336;2022-11-23T15:08:12;6.77;;;6.37;;
739;SDS011;354;42.694;23.336;2022-11-23T15:10:41;10.43;;;7.37;;
739;SDS011;354;42.694;23.336;2022-11-23T15:13:24;9.10;;;8.00;;
739;SDS011;354;42.694;23.336;2022-11-23T15:15:50;8.87;;;8.13;;
739;SDS011;354;42.694;23.336;2022-11-23T15:18:26;11.70;;;9.70;;
739;SDS011;354;42.694;23.336;2022-11-23T15:20:52;15.40;;;10.10;;
739;SDS011;354;42.694;23.336;2022-11-23T15:23:19;15.53;;;10.53;;
739;SDS011;354;42.694;23.336;2022-11-23T15:25:54;13.37;;;11.93;;
739;SDS011;354;42.694;23.336;2022-11-23T15:28:26;12.03;;;9.93;;
739;SDS011;354;42.694;23.336;2022-11-23T15:30:52;12.23;;;10.90;;
739;SDS011;354;42.694;23.336;2022-11-23T15:33:18;16.27;;;10.90;;
739;SDS011;354;42.694;23.336;2022-11-23T15:35:44;16.77;;;11.60;;
739;SDS011;354;42.694;23.336;2022-11-23T15:38:11;16.50;;;12.97;;
739;SDS011;354;42.694;23.336;2022-11-23T15:40:37;18.43;;;15.50;;
739;SDS011;354;42.694;23.336;2022-11-23T15:43:04;28.17;;;19.53;;
739;SDS011;354;42.694;23.336;2022-11-23T15:45:37;17.10;;;13.57;;
739;SDS011;354;42.694;23.336;2022-11-23T15:48:03;24.13;;;14.60;;
739;SDS011;354;42.694;23.336;2022-11-23T15:50:29;22.37;;;12.57;;
739;SDS011;354;42.694;23.336;2022-11-23T15:52:54;13.07;;;11.77;;
739;SDS011;354;42.694;23.336;2022-11-23T15:55:19;19.60;;;14.33;;
739;SDS011;354;42.694;23.336;2022-11-23T15:57:50;15.83;;;12.10;;
739;SDS011;354;42.694;23.336;2022-11-23T16:00:23;15.83;;;11.37;;
739;SDS011;354;42.694;23.336;2022-11-23T16:02:49;13.97;;;11.47;;
739;SDS011;354;42.694;23.336;2022-11-23T16:10:18;18.03;;;12.23;;
739;SDS011;354;42.694;23.336;2022-11-23T16:12:45;12.50;;;10.20;;
739;SDS011;354;42.694;23.336;2022-11-23T16:18:13;10.73;;;8.97;;
739;SDS011;354;42.694;23.336;2022-11-23T16:20:42;9.57;;;8.63;;
739;SDS011;354;42.694;23.336;2022-11-23T16:23:10;10.47;;;9.03;;
739;SDS011;354;42.694;23.336;2022-11-23T16:25:38;9.87;;;9.03;;
739;SDS011;354;42.694;23.336;2022-11-23T16:28:04;9.70;;;8.80;;
739;SDS011;354;42.694;23.336;2022-11-23T16:30:36;9.00;;;8.10;;
739;SDS011;354;42.694;23.336;2022-11-23T16:33:03;10.07;;;8.90;;
739;SDS011;354;42.694;23.336;2022-11-23T16:35:28;9.97;;;8.90;;
739;SDS011;354;42.694;23.336;2022-11-23T16:37:53;10.80;;;9.80;;
739;SDS011;354;42.694;23.336;2022-11-23T16:40:18;10.40;;;9.40;;
739;SDS011;354;42.694;23.336;2022-11-23T16:42:44;9.00;;;7.93;;
739;SDS011;354;42.694;23.336;2022-11-23T16:45:11;9.60;;;8.30;;
739;SDS011;354;42.694;23.336;2022-11-23T16:47:48;9.83;;;8.93;;
739;SDS011;354;42.694;23.336;2022-11-23T16:50:14;11.33;;;10.40;;
739;SDS011;354;42.694;23.336;2022-11-23T16:52:39;9.17;;;8.20;;
739;SDS011;354;42.694;23.336;2022-11-23T16:55:08;8.83;;;7.93;;
739;SDS011;354;42.694;23.336;2022-11-23T16:57:33;9.30;;;8.40;;
739;SDS011;354;42.694;23.336;2022-11-23T17:00:00;14.27;;;10.83;;
739;SDS011;354;42.694;23.336;2022-11-23T17:02:26;15.87;;;11.93;;